Bonner, Montana
Current Conditions -  °F | °C
As of 11:53 PM on Thursday 27 Nov 2014 (Local Time) from KMSO Reporting Station
Overcast Overcast  
Wind Chill: 44°   Ceiling: 5500
Heat Index: 49°   Visibility: 10mi
Dew Point: 37°   Wind: 12mph
Humidity: 64%   Direction: 200°SSW
Pressure: 29.81"   Gusts: 21mph
Location:  46.87°N, 113.86°W
Report Text: KMSO 280653Z AUTO 20010G18KT 10SM SCT046 OVC055 09/03 A2981 RMK AO2 SLP099 T00940028 401391017
Loading
Personal Weather Stations






























Interactive Weather Map New forecast layout! Learn more

10-Day Weather Forecast

Advertisements
Track Severe Weather on mobile